sensor_id;sensor_type;location;lat;lon;timestamp;P1;durP1;ratioP1;P2;durP2;ratioP2
78057;SDS011;67265;52.514;13.292;2023-02-02T00:00:11;8.82;;;1.13;;
78057;SDS011;67265;52.514;13.292;2023-02-02T00:02:37;11.20;;;2.13;;
78057;SDS011;67265;52.514;13.292;2023-02-02T00:05:03;12.05;;;1.45;;
78057;SDS011;67265;52.514;13.292;2023-02-02T00:07:28;11.35;;;1.05;;
78057;SDS011;67265;52.514;13.292;2023-02-02T00:09:53;12.43;;;1.30;;
78057;SDS011;67265;52.514;13.292;2023-02-02T00:12:19;7.85;;;1.30;;
78057;SDS011;67265;52.514;13.292;2023-02-02T00:14:44;13.40;;;1.52;;
78057;SDS011;67265;52.514;13.292;2023-02-02T00:17:09;10.93;;;1.83;;
78057;SDS011;67265;52.514;13.292;2023-02-02T00:19:35;10.27;;;0.93;;
78057;SDS011;67265;52.514;13.292;2023-02-02T00:22:00;13.00;;;1.45;;
78057;SDS011;67265;52.514;13.292;2023-02-02T00:24:26;11.77;;;1.33;;
78057;SDS011;67265;52.514;13.292;2023-02-02T00:26:52;12.00;;;1.13;;
78057;SDS011;67265;52.514;13.292;2023-02-02T00:29:23;11.07;;;1.38;;
78057;SDS011;67265;52.514;13.292;2023-02-02T00:31:52;14.15;;;1.75;;
78057;SDS011;67265;52.514;13.292;2023-02-02T00:34:18;6.28;;;1.52;;
78057;SDS011;67265;52.514;13.292;2023-02-02T00:36:44;10.45;;;2.05;;
78057;SDS011;67265;52.514;13.292;2023-02-02T00:39:10;11.82;;;1.52;;
78057;SDS011;67265;52.514;13.292;2023-02-02T00:41:39;11.55;;;2.03;;
78057;SDS011;67265;52.514;13.292;2023-02-02T00:44:04;12.43;;;1.27;;
78057;SDS011;67265;52.514;13.292;2023-02-02T00:46:48;9.02;;;1.13;;
78057;SDS011;67265;52.514;13.292;2023-02-02T00:49:13;8.95;;;1.15;;
78057;SDS011;67265;52.514;13.292;2023-02-02T00:51:38;12.13;;;2.40;;
78057;SDS011;67265;52.514;13.292;2023-02-02T00:54:04;10.85;;;2.17;;
78057;SDS011;67265;52.514;13.292;2023-02-02T00:56:29;9.52;;;1.13;;
78057;SDS011;67265;52.514;13.292;2023-02-02T00:58:55;10.35;;;1.77;;
78057;SDS011;67265;52.514;13.292;2023-02-02T01:01:20;7.85;;;1.23;;
78057;SDS011;67265;52.514;13.292;2023-02-02T01:03:46;10.70;;;1.73;;
78057;SDS011;67265;52.514;13.292;2023-02-02T01:06:13;10.75;;;1.63;;
78057;SDS011;67265;52.514;13.292;2023-02-02T01:08:38;13.45;;;1.42;;
78057;SDS011;67265;52.514;13.292;2023-02-02T01:11:04;6.15;;;1.15;;
78057;SDS011;67265;52.514;13.292;2023-02-02T01:13:30;14.07;;;1.70;;
78057;SDS011;67265;52.514;13.292;2023-02-02T01:15:56;10.10;;;1.55;;
78057;SDS011;67265;52.514;13.292;2023-02-02T01:18:22;8.88;;;1.35;;
78057;SDS011;67265;52.514;13.292;2023-02-02T01:20:55;11.35;;;2.35;;
78057;SDS011;67265;52.514;13.292;2023-02-02T01:23:27;13.07;;;1.95;;
78057;SDS011;67265;52.514;13.292;2023-02-02T01:25:53;10.18;;;1.20;;
78057;SDS011;67265;52.514;13.292;2023-02-02T01:28:19;10.40;;;1.75;;
78057;SDS011;67265;52.514;13.292;2023-02-02T01:30:44;10.90;;;1.42;;
78057;SDS011;67265;52.514;13.292;2023-02-02T01:33:10;13.95;;;1.70;;
78057;SDS011;67265;52.514;13.292;2023-02-02T01:35:35;9.57;;;1.10;;
78057;SDS011;67265;52.514;13.292;2023-02-02T01:38:00;5.53;;;0.95;;
78057;SDS011;67265;52.514;13.292;2023-02-02T01:40:26;9.75;;;1.40;;
78057;SDS011;67265;52.514;13.292;2023-02-02T01:42:51;9.95;;;1.23;;
78057;SDS011;67265;52.514;13.292;2023-02-02T01:47:51;9.35;;;1.30;;
78057;SDS011;67265;52.514;13.292;2023-02-02T01:50:18;9.60;;;1.48;;
78057;SDS011;67265;52.514;13.292;2023-02-02T01:52:47;9.93;;;1.10;;
78057;SDS011;67265;52.514;13.292;2023-02-02T01:55:14;8.07;;;1.30;;
78057;SDS011;67265;52.514;13.292;2023-02-02T01:57:47;5.32;;;0.82;;
78057;SDS011;67265;52.514;13.292;2023-02-02T02:00:15;8.10;;;1.13;;
78057;SDS011;67265;52.514;13.292;2023-02-02T02:02:48;12.13;;;1.38;;
78057;SDS011;67265;52.514;13.292;2023-02-02T02:05:14;15.48;;;3.13;;
78057;SDS011;67265;52.514;13.292;2023-02-02T02:07:53;11.43;;;1.33;;
78057;SDS011;67265;52.514;13.292;2023-02-02T02:10:21;10.98;;;1.45;;
78057;SDS011;67265;52.514;13.292;2023-02-02T02:12:46;12.52;;;1.40;;
78057;SDS011;67265;52.514;13.292;2023-02-02T02:15:12;12.32;;;1.58;;
78057;SDS011;67265;52.514;13.292;2023-02-02T02:24:00;9.27;;;1.23;;
78057;SDS011;67265;52.514;13.292;2023-02-02T02:42:36;12.20;;;1.83;;
78057;SDS011;67265;52.514;13.292;2023-02-02T02:45:04;5.68;;;0.90;;
78057;SDS011;67265;52.514;13.292;2023-02-02T02:47:31;7.78;;;1.35;;
78057;SDS011;67265;52.514;13.292;2023-02-02T02:49:57;9.35;;;0.68;;
78057;SDS011;67265;52.514;13.292;2023-02-02T02:52:22;7.68;;;0.80;;
78057;SDS011;67265;52.514;13.292;2023-02-02T03:02:59;10.23;;;1.50;;
78057;SDS011;67265;52.514;13.292;2023-02-02T03:05:42;6.00;;;0.77;;
78057;SDS011;67265;52.514;13.292;2023-02-02T03:10:59;11.77;;;1.23;;
78057;SDS011;67265;52.514;13.292;2023-02-02T03:13:26;8.60;;;0.85;;
78057;SDS011;67265;52.514;13.292;2023-02-02T03:15:52;9.80;;;0.93;;
78057;SDS011;67265;52.514;13.292;2023-02-02T03:18:18;13.80;;;1.55;;
78057;SDS011;67265;52.514;13.292;2023-02-02T03:20:45;9.32;;;1.15;;
78057;SDS011;67265;52.514;13.292;2023-02-02T03:23:11;8.05;;;1.10;;
78057;SDS011;67265;52.514;13.292;2023-02-02T03:25:37;8.65;;;1.13;;
78057;SDS011;67265;52.514;13.292;2023-02-02T03:28:03;6.25;;;0.82;;
78057;SDS011;67265;52.514;13.292;2023-02-02T03:30:28;4.53;;;0.90;;
78057;SDS011;67265;52.514;13.292;2023-02-02T03:32:54;4.28;;;0.50;;
78057;SDS011;67265;52.514;13.292;2023-02-02T03:35:19;8.93;;;0.75;;
78057;SDS011;67265;52.514;13.292;2023-02-02T03:37:45;5.50;;;0.43;;
78057;SDS011;67265;52.514;13.292;2023-02-02T03:40:11;8.68;;;1.08;;
78057;SDS011;67265;52.514;13.292;2023-02-02T03:42:37;11.18;;;0.98;;
78057;SDS011;67265;52.514;13.292;2023-02-02T03:45:02;9.90;;;1.33;;
78057;SDS011;67265;52.514;13.292;2023-02-02T03:47:28;4.43;;;0.63;;
78057;SDS011;67265;52.514;13.292;2023-02-02T03:49:54;6.30;;;0.95;;
78057;SDS011;67265;52.514;13.292;2023-02-02T03:52:19;7.22;;;0.80;;
78057;SDS011;67265;52.514;13.292;2023-02-02T03:54:45;5.93;;;0.90;;
78057;SDS011;67265;52.514;13.292;2023-02-02T03:57:10;7.00;;;1.33;;
78057;SDS011;67265;52.514;13.292;2023-02-02T03:59:35;6.07;;;0.43;;
78057;SDS011;67265;52.514;13.292;2023-02-02T04:02:01;4.88;;;0.80;;
78057;SDS011;67265;52.514;13.292;2023-02-02T04:04:26;10.73;;;0.80;;
78057;SDS011;67265;52.514;13.292;2023-02-02T04:06:51;4.50;;;0.82;;
78057;SDS011;67265;52.514;13.292;2023-02-02T04:09:17;3.40;;;0.40;;
78057;SDS011;67265;52.514;13.292;2023-02-02T04:11:42;5.50;;;0.63;;
78057;SDS011;67265;52.514;13.292;2023-02-02T04:14:08;3.97;;;0.80;;
78057;SDS011;67265;52.514;13.292;2023-02-02T04:16:34;6.00;;;0.77;;
78057;SDS011;67265;52.514;13.292;2023-02-02T04:19:01;5.35;;;0.50;;
78057;SDS011;67265;52.514;13.292;2023-02-02T04:21:27;7.28;;;1.20;;
78057;SDS011;67265;52.514;13.292;2023-02-02T04:23:53;7.40;;;0.60;;
78057;SDS011;67265;52.514;13.292;2023-02-02T04:26:18;5.55;;;0.70;;
78057;SDS011;67265;52.514;13.292;2023-02-02T04:28:44;7.00;;;0.60;;
78057;SDS011;67265;52.514;13.292;2023-02-02T04:31:09;5.05;;;0.82;;
78057;SDS011;67265;52.514;13.292;2023-02-02T04:33:34;7.30;;;0.80;;
78057;SDS011;67265;52.514;13.292;2023-02-02T04:36:00;4.22;;;0.70;;
78057;SDS011;67265;52.514;13.292;2023-02-02T04:38:25;5.53;;;0.57;;
78057;SDS011;67265;52.514;13.292;2023-02-02T04:40:51;7.53;;;0.73;;
78057;SDS011;67265;52.514;13.292;2023-02-02T04:43:16;10.63;;;0.65;;
78057;SDS011;67265;52.514;13.292;2023-02-02T04:45:41;9.43;;;0.85;;
78057;SDS011;67265;52.514;13.292;2023-02-02T04:48:07;9.45;;;0.85;;
78057;SDS011;67265;52.514;13.292;2023-02-02T04:50:32;5.93;;;0.68;;
78057;SDS011;67265;52.514;13.292;2023-02-02T04:52:58;6.57;;;1.05;;
78057;SDS011;67265;52.514;13.292;2023-02-02T04:55:23;4.38;;;0.57;;
78057;SDS011;67265;52.514;13.292;2023-02-02T04:57:49;3.60;;;1.00;;
78057;SDS011;67265;52.514;13.292;2023-02-02T05:00:14;5.03;;;0.98;;
78057;SDS011;67265;52.514;13.292;2023-02-02T05:02:40;7.13;;;1.40;;
78057;SDS011;67265;52.514;13.292;2023-02-02T05:05:07;5.90;;;0.90;;
78057;SDS011;67265;52.514;13.292;2023-02-02T05:07:34;6.50;;;1.33;;
78057;SDS011;67265;52.514;13.292;2023-02-02T05:10:00;6.25;;;0.63;;
78057;SDS011;67265;52.514;13.292;2023-02-02T05:12:25;7.40;;;1.08;;
78057;SDS011;67265;52.514;13.292;2023-02-02T05:14:51;5.93;;;0.77;;
78057;SDS011;67265;52.514;13.292;2023-02-02T05:17:16;5.10;;;0.43;;
78057;SDS011;67265;52.514;13.292;2023-02-02T05:19:41;5.78;;;0.63;;
78057;SDS011;67265;52.514;13.292;2023-02-02T05:22:07;5.85;;;0.85;;
78057;SDS011;67265;52.514;13.292;2023-02-02T05:24:32;6.07;;;0.60;;
78057;SDS011;67265;52.514;13.292;2023-02-02T05:26:58;7.78;;;1.13;;
78057;SDS011;67265;52.514;13.292;2023-02-02T05:29:27;8.40;;;1.20;;
78057;SDS011;67265;52.514;13.292;2023-02-02T05:31:56;5.97;;;0.68;;
78057;SDS011;67265;52.514;13.292;2023-02-02T05:34:22;7.65;;;0.60;;
78057;SDS011;67265;52.514;13.292;2023-02-02T05:36:47;10.10;;;0.98;;
78057;SDS011;67265;52.514;13.292;2023-02-02T05:39:13;11.70;;;1.00;;
78057;SDS011;67265;52.514;13.292;2023-02-02T05:41:39;7.85;;;0.90;;
78057;SDS011;67265;52.514;13.292;2023-02-02T05:44:04;9.27;;;1.25;;
78057;SDS011;67265;52.514;13.292;2023-02-02T05:46:30;7.13;;;1.35;;
78057;SDS011;67265;52.514;13.292;2023-02-02T05:48:55;5.30;;;0.60;;
78057;SDS011;67265;52.514;13.292;2023-02-02T05:51:27;8.88;;;1.10;;
78057;SDS011;67265;52.514;13.292;2023-02-02T05:53:53;5.22;;;0.52;;
78057;SDS011;67265;52.514;13.292;2023-02-02T05:56:19;7.30;;;0.80;;
78057;SDS011;67265;52.514;13.292;2023-02-02T05:58:44;9.93;;;1.13;;
78057;SDS011;67265;52.514;13.292;2023-02-02T06:01:12;6.53;;;0.85;;
78057;SDS011;67265;52.514;13.292;2023-02-02T06:03:38;8.80;;;1.23;;
78057;SDS011;67265;52.514;13.292;2023-02-02T06:06:03;9.70;;;1.08;;
78057;SDS011;67265;52.514;13.292;2023-02-02T06:08:29;8.93;;;1.00;;
78057;SDS011;67265;52.514;13.292;2023-02-02T06:10:54;7.72;;;0.90;;
78057;SDS011;67265;52.514;13.292;2023-02-02T06:13:20;5.50;;;0.63;;
78057;SDS011;67265;52.514;13.292;2023-02-02T06:15:45;5.72;;;0.50;;
78057;SDS011;67265;52.514;13.292;2023-02-02T06:18:11;11.38;;;1.15;;
78057;SDS011;67265;52.514;13.292;2023-02-02T06:20:36;5.20;;;0.73;;
78057;SDS011;67265;52.514;13.292;2023-02-02T06:23:02;5.65;;;0.57;;
78057;SDS011;67265;52.514;13.292;2023-02-02T06:25:28;6.93;;;0.90;;
78057;SDS011;67265;52.514;13.292;2023-02-02T06:27:54;7.80;;;0.93;;
78057;SDS011;67265;52.514;13.292;2023-02-02T06:30:20;4.35;;;0.90;;
78057;SDS011;67265;52.514;13.292;2023-02-02T06:32:46;8.57;;;0.75;;
78057;SDS011;67265;52.514;13.292;2023-02-02T06:35:11;7.63;;;2.10;;
78057;SDS011;67265;52.514;13.292;2023-02-02T06:37:36;6.88;;;0.70;;
78057;SDS011;67265;52.514;13.292;2023-02-02T06:40:03;3.72;;;0.40;;
78057;SDS011;67265;52.514;13.292;2023-02-02T06:42:30;7.45;;;0.70;;
78057;SDS011;67265;52.514;13.292;2023-02-02T06:44:56;10.43;;;0.90;;
78057;SDS011;67265;52.514;13.292;2023-02-02T06:47:21;5.25;;;0.80;;
78057;SDS011;67265;52.514;13.292;2023-02-02T06:49:46;5.30;;;0.70;;
78057;SDS011;67265;52.514;13.292;2023-02-02T06:52:12;12.57;;;0.95;;
78057;SDS011;67265;52.514;13.292;2023-02-02T06:54:37;5.13;;;0.60;;
78057;SDS011;67265;52.514;13.292;2023-02-02T06:57:02;6.65;;;0.73;;
78057;SDS011;67265;52.514;13.292;2023-02-02T06:59:28;5.55;;;0.95;;
78057;SDS011;67265;52.514;13.292;2023-02-02T07:01:53;7.80;;;1.15;;
78057;SDS011;67265;52.514;13.292;2023-02-02T07:04:18;11.18;;;1.40;;
78057;SDS011;67265;52.514;13.292;2023-02-02T07:06:44;6.82;;;1.15;;
78057;SDS011;67265;52.514;13.292;2023-02-02T07:09:09;12.10;;;1.08;;
78057;SDS011;67265;52.514;13.292;2023-02-02T07:11:35;7.43;;;1.10;;
78057;SDS011;67265;52.514;13.292;2023-02-02T07:14:00;3.67;;;0.52;;
78057;SDS011;67265;52.514;13.292;2023-02-02T07:16:26;8.25;;;0.98;;
78057;SDS011;67265;52.514;13.292;2023-02-02T07:18:52;8.38;;;1.40;;
78057;SDS011;67265;52.514;13.292;2023-02-02T07:21:21;6.35;;;1.00;;
78057;SDS011;67265;52.514;13.292;2023-02-02T07:23:47;7.68;;;0.63;;
78057;SDS011;67265;52.514;13.292;2023-02-02T07:26:13;5.07;;;1.10;;
78057;SDS011;67265;52.514;13.292;2023-02-02T07:28:39;11.80;;;1.35;;
78057;SDS011;67265;52.514;13.292;2023-02-02T07:31:11;6.97;;;1.30;;
78057;SDS011;67265;52.514;13.292;2023-02-02T07:33:43;7.10;;;0.65;;
78057;SDS011;67265;52.514;13.292;2023-02-02T07:36:10;9.95;;;1.00;;
78057;SDS011;67265;52.514;13.292;2023-02-02T07:38:36;9.20;;;1.30;;
78057;SDS011;67265;52.514;13.292;2023-02-02T07:41:02;5.10;;;0.77;;
78057;SDS011;67265;52.514;13.292;2023-02-02T07:43:28;6.57;;;1.02;;
78057;SDS011;67265;52.514;13.292;2023-02-02T07:45:53;5.90;;;1.25;;
78057;SDS011;67265;52.514;13.292;2023-02-02T07:48:19;6.40;;;0.70;;
78057;SDS011;67265;52.514;13.292;2023-02-02T07:50:45;10.05;;;1.30;;
78057;SDS011;67265;52.514;13.292;2023-02-02T07:53:10;6.20;;;0.93;;
78057;SDS011;67265;52.514;13.292;2023-02-02T07:55:35;7.82;;;1.35;;
78057;SDS011;67265;52.514;13.292;2023-02-02T07:58:01;6.47;;;1.23;;
78057;SDS011;67265;52.514;13.292;2023-02-02T08:00:26;14.38;;;1.83;;
78057;SDS011;67265;52.514;13.292;2023-02-02T08:02:53;5.78;;;1.00;;
78057;SDS011;67265;52.514;13.292;2023-02-02T08:05:18;11.52;;;1.42;;
78057;SDS011;67265;52.514;13.292;2023-02-02T08:07:44;10.90;;;1.80;;
78057;SDS011;67265;52.514;13.292;2023-02-02T08:10:10;8.65;;;1.20;;
78057;SDS011;67265;52.514;13.292;2023-02-02T08:12:35;14.23;;;1.02;;
78057;SDS011;67265;52.514;13.292;2023-02-02T08:15:01;7.43;;;1.63;;
78057;SDS011;67265;52.514;13.292;2023-02-02T08:17:26;12.18;;;2.08;;
78057;SDS011;67265;52.514;13.292;2023-02-02T08:19:51;10.10;;;2.10;;
78057;SDS011;67265;52.514;13.292;2023-02-02T08:22:17;8.38;;;1.63;;
78057;SDS011;67265;52.514;13.292;2023-02-02T08:24:42;10.23;;;1.92;;
78057;SDS011;67265;52.514;13.292;2023-02-02T08:27:08;8.43;;;1.08;;
78057;SDS011;67265;52.514;13.292;2023-02-02T08:29:34;10.98;;;1.17;;
78057;SDS011;67265;52.514;13.292;2023-02-02T08:32:00;7.57;;;0.88;;
78057;SDS011;67265;52.514;13.292;2023-02-02T08:34:26;7.03;;;0.60;;
78057;SDS011;67265;52.514;13.292;2023-02-02T08:36:51;8.13;;;1.42;;
78057;SDS011;67265;52.514;13.292;2023-02-02T08:39:16;6.45;;;1.20;;
78057;SDS011;67265;52.514;13.292;2023-02-02T08:41:42;6.60;;;1.38;;
78057;SDS011;67265;52.514;13.292;2023-02-02T08:44:10;6.43;;;1.05;;
78057;SDS011;67265;52.514;13.292;2023-02-02T08:46:37;4.45;;;0.65;;
78057;SDS011;67265;52.514;13.292;2023-02-02T08:49:02;8.40;;;1.10;;
78057;SDS011;67265;52.514;13.292;2023-02-02T08:51:28;5.47;;;0.90;;
78057;SDS011;67265;52.514;13.292;2023-02-02T08:53:53;7.47;;;0.98;;
78057;SDS011;67265;52.514;13.292;2023-02-02T08:56:19;3.80;;;1.08;;
78057;SDS011;67265;52.514;13.292;2023-02-02T08:58:46;8.85;;;1.13;;
78057;SDS011;67265;52.514;13.292;2023-02-02T09:03:45;3.50;;;0.80;;
78057;SDS011;67265;52.514;13.292;2023-02-02T09:06:12;6.97;;;0.60;;
78057;SDS011;67265;52.514;13.292;2023-02-02T09:08:39;9.02;;;1.00;;
78057;SDS011;67265;52.514;13.292;2023-02-02T09:11:08;5.30;;;1.08;;
78057;SDS011;67265;52.514;13.292;2023-02-02T09:13:35;2.88;;;0.60;;
78057;SDS011;67265;52.514;13.292;2023-02-02T09:16:02;3.65;;;1.02;;
78057;SDS011;67265;52.514;13.292;2023-02-02T09:18:29;7.80;;;1.25;;
78057;SDS011;67265;52.514;13.292;2023-02-02T09:20:57;5.35;;;0.80;;
78057;SDS011;67265;52.514;13.292;2023-02-02T09:23:24;5.63;;;0.45;;
78057;SDS011;67265;52.514;13.292;2023-02-02T09:25:50;3.47;;;0.80;;
78057;SDS011;67265;52.514;13.292;2023-02-02T09:28:15;6.95;;;0.70;;
78057;SDS011;67265;52.514;13.292;2023-02-02T09:30:40;10.13;;;1.13;;
78057;SDS011;67265;52.514;13.292;2023-02-02T09:33:06;5.03;;;0.90;;
78057;SDS011;67265;52.514;13.292;2023-02-02T09:35:31;6.93;;;0.85;;
78057;SDS011;67265;52.514;13.292;2023-02-02T09:37:56;9.18;;;0.88;;
78057;SDS011;67265;52.514;13.292;2023-02-02T09:40:22;6.15;;;1.05;;
78057;SDS011;67265;52.514;13.292;2023-02-02T09:43:00;5.50;;;0.80;;
78057;SDS011;67265;52.514;13.292;2023-02-02T09:49:12;12.45;;;0.77;;
78057;SDS011;67265;52.514;13.292;2023-02-02T09:51:28;8.13;;;0.93;;
78057;SDS011;67265;52.514;13.292;2023-02-02T09:54:02;4.57;;;0.70;;
78057;SDS011;67265;52.514;13.292;2023-02-02T09:59:01;3.75;;;0.43;;
78057;SDS011;67265;52.514;13.292;2023-02-02T10:01:32;5.90;;;1.02;;
78057;SDS011;67265;52.514;13.292;2023-02-02T10:04:21;5.90;;;1.20;;
78057;SDS011;67265;52.514;13.292;2023-02-02T10:06:56;5.65;;;0.80;;
78057;SDS011;67265;52.514;13.292;2023-02-02T10:09:29;8.02;;;1.08;;
78057;SDS011;67265;52.514;13.292;2023-02-02T10:15:03;3.90;;;0.70;;
78057;SDS011;67265;52.514;13.292;2023-02-02T10:17:39;5.80;;;0.75;;
78057;SDS011;67265;52.514;13.292;2023-02-02T10:20:16;6.03;;;0.88;;
78057;SDS011;67265;52.514;13.292;2023-02-02T10:22:46;3.00;;;0.30;;
78057;SDS011;67265;52.514;13.292;2023-02-02T10:25:13;7.57;;;1.38;;
78057;SDS011;67265;52.514;13.292;2023-02-02T10:27:40;7.03;;;1.25;;
78057;SDS011;67265;52.514;13.292;2023-02-02T10:30:17;3.30;;;0.77;;
78057;SDS011;67265;52.514;13.292;2023-02-02T10:32:46;4.28;;;1.40;;
78057;SDS011;67265;52.514;13.292;2023-02-02T10:46:30;3.80;;;0.70;;
78057;SDS011;67265;52.514;13.292;2023-02-02T10:51:39;3.78;;;0.65;;
78057;SDS011;67265;52.514;13.292;2023-02-02T10:54:09;4.70;;;0.80;;
78057;SDS011;67265;52.514;13.292;2023-02-02T10:56:48;6.60;;;0.70;;
78057;SDS011;67265;52.514;13.292;2023-02-02T10:59:18;6.85;;;0.70;;
78057;SDS011;67265;52.514;13.292;2023-02-02T11:01:55;4.00;;;0.75;;
78057;SDS011;67265;52.514;13.292;2023-02-02T11:04:20;8.38;;;1.60;;
78057;SDS011;67265;52.514;13.292;2023-02-02T11:07:04;4.47;;;0.77;;
78057;SDS011;67265;52.514;13.292;2023-02-02T11:09:30;4.72;;;0.98;;
78057;SDS011;67265;52.514;13.292;2023-02-02T11:12:00;5.03;;;1.00;;
78057;SDS011;67265;52.514;13.292;2023-02-02T11:17:19;5.10;;;0.90;;
78057;SDS011;67265;52.514;13.292;2023-02-02T11:19:48;5.72;;;0.95;;
78057;SDS011;67265;52.514;13.292;2023-02-02T11:22:48;6.50;;;1.10;;
78057;SDS011;67265;52.514;13.292;2023-02-02T11:25:26;5.85;;;0.60;;
78057;SDS011;67265;52.514;13.292;2023-02-02T11:27:59;6.85;;;1.40;;
78057;SDS011;67265;52.514;13.292;2023-02-02T11:30:31;4.65;;;0.77;;
78057;SDS011;67265;52.514;13.292;2023-02-02T11:32:58;4.40;;;0.65;;
78057;SDS011;67265;52.514;13.292;2023-02-02T11:35:27;4.72;;;0.88;;
78057;SDS011;67265;52.514;13.292;2023-02-02T11:37:57;5.95;;;0.77;;
78057;SDS011;67265;52.514;13.292;2023-02-02T11:40:35;7.65;;;0.90;;
78057;SDS011;67265;52.514;13.292;2023-02-02T11:43:04;4.07;;;0.82;;
78057;SDS011;67265;52.514;13.292;2023-02-02T11:45:39;7.25;;;0.63;;
78057;SDS011;67265;52.514;13.292;2023-02-02T11:48:07;4.20;;;0.95;;
78057;SDS011;67265;52.514;13.292;2023-02-02T11:50:40;3.67;;;0.70;;
78057;SDS011;67265;52.514;13.292;2023-02-02T11:53:31;1.98;;;0.30;;
78057;SDS011;67265;52.514;13.292;2023-02-02T11:56:01;6.22;;;0.90;;
78057;SDS011;67265;52.514;13.292;2023-02-02T11:58:42;6.13;;;0.90;;
78057;SDS011;67265;52.514;13.292;2023-02-02T12:03:48;4.80;;;0.70;;
78057;SDS011;67265;52.514;13.292;2023-02-02T12:06:20;6.45;;;0.75;;
78057;SDS011;67265;52.514;13.292;2023-02-02T12:08:50;2.88;;;0.52;;
78057;SDS011;67265;52.514;13.292;2023-02-02T12:17:33;4.88;;;0.45;;
78057;SDS011;67265;52.514;13.292;2023-02-02T12:19:46;2.78;;;0.32;;
78057;SDS011;67265;52.514;13.292;2023-02-02T12:29:51;3.73;;;0.40;;
78057;SDS011;67265;52.514;13.292;2023-02-02T12:38:29;2.95;;;0.43;;
78057;SDS011;67265;52.514;13.292;2023-02-02T12:43:50;2.30;;;0.40;;
78057;SDS011;67265;52.514;13.292;2023-02-02T12:58:00;3.13;;;0.45;;
78057;SDS011;67265;52.514;13.292;2023-02-02T13:09:08;5.63;;;0.60;;
78057;SDS011;67265;52.514;13.292;2023-02-02T13:11:34;3.83;;;0.55;;
78057;SDS011;67265;52.514;13.292;2023-02-02T13:14:11;5.57;;;0.93;;
78057;SDS011;67265;52.514;13.292;2023-02-02T13:19:06;7.03;;;1.20;;
78057;SDS011;67265;52.514;13.292;2023-02-02T13:21:36;2.97;;;0.50;;
78057;SDS011;67265;52.514;13.292;2023-02-02T13:24:02;4.88;;;0.63;;
78057;SDS011;67265;52.514;13.292;2023-02-02T13:26:39;3.15;;;1.52;;
78057;SDS011;67265;52.514;13.292;2023-02-02T13:29:06;5.88;;;1.10;;
78057;SDS011;67265;52.514;13.292;2023-02-02T13:31:43;3.95;;;0.70;;
78057;SDS011;67265;52.514;13.292;2023-02-02T13:34:20;2.75;;;0.30;;
78057;SDS011;67265;52.514;13.292;2023-02-02T13:39:47;4.88;;;0.40;;
78057;SDS011;67265;52.514;13.292;2023-02-02T13:44:57;6.38;;;1.00;;
78057;SDS011;67265;52.514;13.292;2023-02-02T13:47:29;4.53;;;0.73;;
78057;SDS011;67265;52.514;13.292;2023-02-02T13:50:10;3.20;;;0.63;;
78057;SDS011;67265;52.514;13.292;2023-02-02T13:57:52;3.17;;;0.55;;
78057;SDS011;67265;52.514;13.292;2023-02-02T14:00:38;2.80;;;0.40;;
78057;SDS011;67265;52.514;13.292;2023-02-02T14:03:15;4.80;;;0.63;;
78057;SDS011;67265;52.514;13.292;2023-02-02T14:06:16;5.97;;;0.65;;
78057;SDS011;67265;52.514;13.292;2023-02-02T14:08:44;3.10;;;0.40;;
78057;SDS011;67265;52.514;13.292;2023-02-02T14:11:15;5.07;;;0.40;;
78057;SDS011;67265;52.514;13.292;2023-02-02T14:13:45;4.20;;;0.68;;
78057;SDS011;67265;52.514;13.292;2023-02-02T14:18:56;9.97;;;1.33;;
78057;SDS011;67265;52.514;13.292;2023-02-02T14:34:42;4.93;;;1.40;;
78057;SDS011;67265;52.514;13.292;2023-02-02T14:48:36;2.00;;;0.50;;
78057;SDS011;67265;52.514;13.292;2023-02-02T14:51:03;3.15;;;0.50;;
78057;SDS011;67265;52.514;13.292;2023-02-02T14:53:36;2.60;;;0.57;;
78057;SDS011;67265;52.514;13.292;2023-02-02T14:56:03;3.10;;;1.30;;
78057;SDS011;67265;52.514;13.292;2023-02-02T14:58:37;5.32;;;1.25;;
78057;SDS011;67265;52.514;13.292;2023-02-02T15:01:07;6.10;;;0.73;;
78057;SDS011;67265;52.514;13.292;2023-02-02T15:03:45;1.83;;;0.70;;
78057;SDS011;67265;52.514;13.292;2023-02-02T15:15:05;2.42;;;0.73;;
78057;SDS011;67265;52.514;13.292;2023-02-02T15:17:44;5.30;;;0.75;;
78057;SDS011;67265;52.514;13.292;2023-02-02T15:20:21;3.03;;;0.45;;
78057;SDS011;67265;52.514;13.292;2023-02-02T15:23:01;2.33;;;0.40;;
78057;SDS011;67265;52.514;13.292;2023-02-02T15:31:08;7.00;;;0.57;;
78057;SDS011;67265;52.514;13.292;2023-02-02T15:33:44;1.42;;;0.50;;
78057;SDS011;67265;52.514;13.292;2023-02-02T15:38:48;2.45;;;0.50;;
78057;SDS011;67265;52.514;13.292;2023-02-02T15:41:31;5.97;;;0.70;;
78057;SDS011;67265;52.514;13.292;2023-02-02T15:43:58;2.92;;;0.40;;
78057;SDS011;67265;52.514;13.292;2023-02-02T15:46:28;2.95;;;0.43;;
78057;SDS011;67265;52.514;13.292;2023-02-02T15:51:52;3.30;;;0.43;;
78057;SDS011;67265;52.514;13.292;2023-02-02T15:54:29;2.80;;;0.43;;
78057;SDS011;67265;52.514;13.292;2023-02-02T15:56:59;1.70;;;0.57;;
78057;SDS011;67265;52.514;13.292;2023-02-02T15:59:27;1.95;;;0.32;;
78057;SDS011;67265;52.514;13.292;2023-02-02T16:04:34;2.78;;;0.63;;
78057;SDS011;67265;52.514;13.292;2023-02-02T16:07:04;4.47;;;1.63;;
78057;SDS011;67265;52.514;13.292;2023-02-02T16:09:36;5.20;;;1.67;;
78057;SDS011;67265;52.514;13.292;2023-02-02T16:12:02;7.25;;;1.58;;
78057;SDS011;67265;52.514;13.292;2023-02-02T16:14:30;4.68;;;1.83;;
78057;SDS011;67265;52.514;13.292;2023-02-02T16:19:38;6.57;;;2.08;;
78057;SDS011;67265;52.514;13.292;2023-02-02T16:22:06;4.95;;;1.50;;
78057;SDS011;67265;52.514;13.292;2023-02-02T16:24:36;10.35;;;2.10;;
78057;SDS011;67265;52.514;13.292;2023-02-02T16:27:04;7.45;;;2.70;;
78057;SDS011;67265;52.514;13.292;2023-02-02T16:29:31;10.02;;;2.65;;
78057;SDS011;67265;52.514;13.292;2023-02-02T16:31:58;8.05;;;3.10;;
78057;SDS011;67265;52.514;13.292;2023-02-02T16:37:05;10.32;;;2.85;;
78057;SDS011;67265;52.514;13.292;2023-02-02T16:39:31;5.95;;;2.35;;
78057;SDS011;67265;52.514;13.292;2023-02-02T16:44:41;5.80;;;1.90;;
78057;SDS011;67265;52.514;13.292;2023-02-02T16:49:51;4.13;;;1.92;;
78057;SDS011;67265;52.514;13.292;2023-02-02T16:52:17;4.00;;;1.98;;
78057;SDS011;67265;52.514;13.292;2023-02-02T16:54:51;4.38;;;1.55;;
78057;SDS011;67265;52.514;13.292;2023-02-02T16:57:23;4.18;;;1.38;;
78057;SDS011;67265;52.514;13.292;2023-02-02T16:59:52;4.88;;;1.33;;
78057;SDS011;67265;52.514;13.292;2023-02-02T17:04:51;7.00;;;1.52;;
78057;SDS011;67265;52.514;13.292;2023-02-02T17:09:46;7.17;;;2.07;;
78057;SDS011;67265;52.514;13.292;2023-02-02T17:27:25;6.28;;;2.10;;
78057;SDS011;67265;52.514;13.292;2023-02-02T17:32:20;4.32;;;1.10;;
78057;SDS011;67265;52.514;13.292;2023-02-02T17:34:47;2.95;;;1.10;;
78057;SDS011;67265;52.514;13.292;2023-02-02T17:37:13;4.18;;;1.45;;
78057;SDS011;67265;52.514;13.292;2023-02-02T17:39:39;2.50;;;1.20;;
78057;SDS011;67265;52.514;13.292;2023-02-02T17:42:04;3.92;;;1.17;;
78057;SDS011;67265;52.514;13.292;2023-02-02T17:44:30;4.10;;;1.77;;
78057;SDS011;67265;52.514;13.292;2023-02-02T17:46:55;8.15;;;2.00;;
78057;SDS011;67265;52.514;13.292;2023-02-02T17:49:21;4.95;;;1.50;;
78057;SDS011;67265;52.514;13.292;2023-02-02T17:51:46;6.93;;;3.03;;
78057;SDS011;67265;52.514;13.292;2023-02-02T17:54:13;5.72;;;2.25;;
78057;SDS011;67265;52.514;13.292;2023-02-02T17:56:39;5.75;;;2.88;;
78057;SDS011;67265;52.514;13.292;2023-02-02T17:59:05;4.25;;;2.05;;
78057;SDS011;67265;52.514;13.292;2023-02-02T18:01:31;5.07;;;2.60;;
78057;SDS011;67265;52.514;13.292;2023-02-02T18:03:57;6.95;;;2.03;;